• Join FlightAware (Why Join?)
  • Login
  • US Flag 
06:48PM EDT


 

Airport Tracker/Info


-or-


 

Live Flight TrackerFlight Track Log ✈ N1926A ✈ 16-Sep-2013 ✈ 41A - KVBT

Flight Track Log - Related Links

Times and Time Zones

All times are in EDT time to prevent confusion due to time zone crossing. See the N1926A flight status page for this flight to view local times or setup timezone preferences in your user account.

Time Position Orientation Groundspeed Altitude Reporting Facility
EDT Latitude Longitude Course Direction KTS MPH feet Rate Location/Type
05:59AM 32.5786 -85.9936 310° West 260 299 5,200  Level Atlanta Center
06:00AM 32.6092 -86.0361 310° West 208 239 7,300 2,040 Climbing Atlanta Center
06:01AM 32.6378 -86.0786 309° West 181 208 9,300 1,860 Climbing Atlanta Center
06:02AM 32.6600 -86.1261 299° West 173 199 11,100 1,800 Climbing Atlanta Center
06:03AM 32.6842 -86.1736 301° West 168 193 12,900 1,680 Climbing Atlanta Center
06:04AM 32.7083 -86.2261 299° West 168 193 14,500 1,560 Climbing Atlanta Center
06:05AM 32.7303 -86.2783 297° West 168 193 16,100 1,500 Climbing Atlanta Center
06:06AM 32.7564 -86.3333 299° West 181 208 17,500 1,380 Climbing Atlanta Center
06:07AM 32.7783 -86.3883 295° West 186 214 18,900 1,260 Climbing Atlanta Center
06:08AM 32.8044 -86.4433 299° West 186 214 20,100 1,200 Climbing Atlanta Center
06:09AM 32.8328 -86.4911 305° West 181 208 21,400 1,200 Climbing Atlanta Center
06:10AM 32.8608 -86.5464 301° West 181 208 22,500 1,020 Climbing Atlanta Center
06:11AM 32.8867 -86.6014 299° West 181 208 23,500 1,020 Climbing Atlanta Center
06:12AM 32.9108 -86.6542 299° West 181 208 24,600 960 Climbing Atlanta Center
06:13AM 32.9369 -86.7019 303° West 181 208 25,500 660 Climbing Atlanta Center
06:14AM 32.9606 -86.7622 295° West 181 208 26,000 240 Climbing Atlanta Center
06:15AM 32.9906 -86.8225 301° West 194 223 26,000  Level Atlanta Center
06:16AM 33.0244 -86.8881 302° West 213 245 26,000  Level Atlanta Center
06:17AM 33.0625 -86.9536 305° West 236 272 26,000  Level Atlanta Center
06:18AM 33.0986 -87.0244 301° West 241 277 26,000  Level Atlanta Center
06:19AM 33.1383 -87.1000 302° West 246 283 26,000  Level Atlanta Center
06:21AM 33.1936 -87.2119 301° West 255 293 26,000  Level Memphis Center
06:22AM 33.2289 -87.2853 300° West 250 288 26,000  Level Memphis Center
06:23AM 33.2619 -87.3561 299° West 244 281 26,000  Level Memphis Center
06:24AM 33.2969 -87.4294 300° West 244 281 26,000  Level Memphis Center
06:25AM 33.3342 -87.5003 302° West 249 287 26,000  Level Memphis Center
06:26AM 33.3692 -87.5739 300° West 249 287 26,000  Level Memphis Center
06:27AM 33.4042 -87.6450 301° West 249 287 26,000  Level Memphis Center
06:28AM 33.4392 -87.7136 301° West 249 287 26,000  Level Memphis Center
06:29AM 33.4739 -87.7872 300° West 249 287 26,000  Level Memphis Center
06:30AM 33.5089 -87.8583 301° West 249 287 26,000  Level Memphis Center
06:31AM 33.5436 -87.9297 300° West 249 287 26,000  Level Memphis Center
06:32AM 33.5783 -88.0033 300° West 249 287 26,000  Level Memphis Center
06:33AM 33.6133 -88.0747 301° West 249 287 26,000  Level Memphis Center
06:34AM 33.6500 -88.1486 301° West 249 287 26,000  Level Memphis Center
06:35AM 33.6825 -88.2178 299° West 249 287 26,000  Level Memphis Center
06:36AM 33.7192 -88.2919 301° West 249 287 26,000  Level Memphis Center
06:37AM 33.7539 -88.3661 299° West 249 287 26,000  Level Memphis Center
06:38AM 33.7906 -88.4375 302° West 249 287 26,000  Level Memphis Center
06:39AM 33.8250 -88.5094 300° West 249 287 26,000  Level Memphis Center
06:40AM 33.8594 -88.5861 298° West 249 287 26,000  Level Memphis Center
06:41AM 33.8961 -88.6581 302° West 249 287 26,000  Level Memphis Center
06:42AM 33.9283 -88.7300 298° West 249 287 26,000  Level Memphis Center
06:43AM 33.9647 -88.8069 300° West 254 292 26,000  Level Memphis Center
06:44AM 33.9969 -88.8764 299° West 254 292 26,000  Level Memphis Center
06:45AM 34.0331 -88.9486 301° West 248 285 26,000  Level Memphis Center
06:46AM 34.0694 -89.0231 301° West 248 285 26,000  Level Memphis Center
06:47AM 34.1017 -89.0953 298° West 248 285 26,000  Level Memphis Center
06:48AM 34.1378 -89.1778 298° West 248 285 26,000  Level Memphis Center
06:49AM 34.1739 -89.2500 301° West 253 291 26,000  Level Memphis Center
06:50AM 34.2100 -89.3225 301° West 248 285 26,000  Level Memphis Center
06:51AM 34.2419 -89.3972 297° West 248 285 26,000  Level Memphis Center
06:52AM 34.2758 -89.4697 300° West 248 285 26,000  Level Memphis Center
06:53AM 34.3097 -89.5425 299° West 253 291 26,000  Level Memphis Center
06:54AM 34.3436 -89.6150 300° West 253 291 26,000  Level Memphis Center
06:55AM 34.3794 -89.6903 300° West 245 282 26,000  Level Memphis Center
06:56AM 34.4069 -89.7556 297° West 245 282 26,000  Level Memphis Center
06:57AM 34.4408 -89.8308 299° West 251 289 26,000  Level Memphis Center
06:58AM 34.4703 -89.9061 295° West 251 289 26,000  Level Memphis Center
06:59AM 34.5039 -89.9792 299° West 251 289 26,100  Climbing Memphis Center
07:00AM 34.5397 -90.0544 300° West 251 289 26,000  Descending Memphis Center
07:01AM 34.5794 -90.1325 302° West 251 289 26,100  Climbing Memphis Center
07:02AM 34.6150 -90.2058 301° West 246 283 26,000 -60 Descending Memphis Center
07:03AM 34.6506 -90.2789 301° West 246 283 26,000  Level Memphis Center
07:04AM 34.6861 -90.3494 302° West 246 283 26,000  Level Memphis Center
07:05AM 34.7172 -90.4228 297° West 246 283 26,100  Climbing Memphis Center
07:06AM 34.7486 -90.4961 298° West 246 283 26,000  Descending Memphis Center
07:07AM 34.7819 -90.5669 300° West 246 283 26,100  Climbing Memphis Center
07:08AM 34.8108 -90.6328 298° West 246 283 26,100  Level Memphis Center
07:09AM 34.8461 -90.7064 300° West 252 290 26,100 -60 Level Memphis Center
07:10AM 34.8772 -90.7797 297° West 246 283 26,000 -60 Descending Memphis Center
07:11AM 34.9106 -90.8508 300° West 246 283 26,000  Level Memphis Center
07:12AM 34.9436 -90.9244 299° West 246 283 26,000  Level Memphis Center
07:13AM 34.9744 -90.9983 297° West 252 290 26,000  Level Memphis Center
07:14AM 35.0117 -91.0772 300° West 246 283 26,000  Level Memphis Center
07:15AM 35.0444 -91.1508 299° West 246 283 26,100  Climbing Memphis Center
07:16AM 35.0794 -91.2250 300° West 246 283 26,000 -60 Descending Memphis Center
07:17AM 35.1103 -91.2989 297° West 246 283 26,000  Level Memphis Center
07:18AM 35.1389 -91.3703 296° West 241 277 26,100  Climbing Memphis Center
07:19AM 35.1717 -91.4417 299° West 241 277 26,000 -60 Descending Memphis Center
07:20AM 35.2022 -91.5158 297° West 246 283 26,000  Level Memphis Center
07:21AM 35.2350 -91.5850 300° West 246 283 26,000  Level Memphis Center
07:22AM 35.2656 -91.6592 297° West 246 283 26,000  Level Memphis Center
07:23AM 35.2961 -91.7308 298° West 246 283 26,100 -180 Climbing Memphis Center
07:24AM 35.3267 -91.8050 297° West 241 277 25,700 -420 Descending Memphis Center
07:25AM 35.3631 -91.8797 301° West 246 283 25,300 -480 Descending Memphis Center
07:26AM 35.3978 -91.9542 300° West 246 283 24,800 -600 Descending Memphis Center
07:27AM 35.4342 -92.0364 299° West 251 289 24,100 -840 Descending Memphis Center
07:28AM 35.4686 -92.1186 297° West 263 303 23,200 -900 Descending Memphis Center
07:29AM 35.5028 -92.2061 296° West 273 314 22,300 -1,140 Descending Memphis Center
07:30AM 35.5411 -92.2936 298° West 279 321 21,000 -1,200 Descending Memphis Center
07:31AM 35.5792 -92.3814 298° West 279 321 20,000 -1,020 Descending Memphis Center
07:32AM 35.6175 -92.4717 298° West 284 327 19,000 -960 Descending Memphis Center
07:33AM 35.6556 -92.5594 298° West 284 327 18,100 -900 Descending Memphis Center
07:34AM 35.6936 -92.6447 299° West 289 333 17,300 -900 Descending Memphis Center
07:35AM 35.7294 -92.7353 296° West 289 333 16,300 -1,260 Descending Memphis Center
07:36AM 35.7653 -92.8258 296° West 289 333 14,800 -1,140 Descending Memphis Center
07:37AM 35.7947 -92.9136 292° West 289 333 14,100 -840 Descending Memphis Center
07:38AM 35.8219 -93.0017 291° West 283 326 13,200 -900 Descending Memphis Center
07:39AM 35.8472 -93.0894 290° West 277 319 12,400 -780 Descending Memphis Center
07:40AM 35.8703 -93.1775 288° West 271 312 11,700 -780 Descending Memphis Center
07:41AM 35.8914 -93.2653 287° West 266 306 10,900 -1,020 Descending Memphis Center
07:42AM 35.9142 -93.3531 288° West 266 306 9,700 -1,200 Descending Memphis Center
07:43AM 35.9414 -93.4386 291° West 266 306 8,600 -1,200 Descending Memphis Center
07:44AM 35.9683 -93.5244 291° West 266 306 7,400 -1,200 Descending Memphis Center
07:45AM 35.9911 -93.6125 288° West 271 312 6,300 -720 Descending Memphis Center
07:46AM 36.0119 -93.6928 288° West 265 305 6,000 -540 Descending Memphis Center
07:47AM 36.0347 -93.7733 289° West 254 292 5,300 -900 Descending Memphis Center
07:48AM 36.0556 -93.8539 288° West 249 287 4,200 -660 Descending Memphis Center
07:49AM 36.0803 -93.9369 290° West 249 287 4,000 -120 Descending Memphis Center
07:50AM 36.0969 -94.0044 287° West 237 273 4,000  Level Memphis Center
07:51AM 36.1161 -94.0669 291° West 213 245 4,000 -300 Level Memphis Center
07:52AM 36.1308 -94.1294 286° West 201 231 3,400 -300 Descending Memphis Center
07:53AM 36.1461 -94.1764 292° West 172 198 3,400 -180 Level Memphis Center
07:54AM 36.1831 -94.1911 342° North 133 153 3,100 -420 Descending Memphis Center
07:55AM 36.2206 -94.1978 352° North 133 153 2,600 -540 Descending Memphis Center
07:57AM 36.3143 -94.2140 North  Level Estimated
08:04AM 36.3333 -94.2167 North  Level FlightAware Approximate
08:05AM 36.3452 -94.2193 North  Level Estimated
08:06AM 36.3452 -94.2193 North  Level Estimated